Time;durP1;ratioP1;P1;durP2;ratioP2;P2;SDS_P1;SDS_P2;PMS_P1;PMS_P2;Temp;Humidity;BMP_temperature;BMP_pressure;BME280_temperature;BME280_humidity;BME280_pressure;Samples;Min_cycle;Max_cycle;Signal;HPM_P1;HPM_P2
2023/08/30 00:00:21;;;;;;;14.30;9.60;;;;;;;18.82;100.00;97900.52;272400;1272;22374;-88
2023/08/30 00:06:43;;;;;;;17.20;9.00;;;;;;;18.72;100.00;97900.98;272410;1271;22328;-87
2023/08/30 00:12:44;;;;;;;16.70;9.40;;;;;;;18.72;100.00;97892.58;272365;1256;22594;-86
2023/08/30 00:18:46;;;;;;;12.00;8.90;;;;;;;18.72;100.00;97897.71;272559;1272;22265;-84
2023/08/30 00:24:48;;;;;;;14.10;9.70;;;;;;;18.73;100.00;97897.64;273117;1267;22363;-83
2023/08/30 00:30:54;;;;;;;16.60;9.50;;;;;;;18.74;100.00;97901.06;272939;1271;23179;-86
2023/08/30 00:36:56;;;;;;;;;;;;;;;18.72;100.00;97899.88;272974;1270;22455;-85
2023/08/30 00:42:58;;;;;;;11.80;8.70;;;;;;;18.65;100.00;97881.47;272954;1270;22261;-84
2023/08/30 00:49:00;;;;;;;16.10;8.90;;;;;;;18.56;100.00;97891.37;273063;1266;23436;-84
2023/08/30 00:55:02;;;;;;;13.70;8.70;;;;;;;18.50;100.00;97889.34;272903;1272;23234;-84
2023/08/30 01:01:08;;;;;;;12.10;8.20;;;;;;;18.47;100.00;97878.60;271530;1272;24318;-84
2023/08/30 01:07:11;;;;;;;11.90;8.70;;;;;;;18.50;100.00;97877.69;270513;1256;22530;-84
2023/08/30 01:13:18;;;;;;;11.20;8.00;;;;;;;18.52;100.00;97874.84;271851;1272;22392;-87
2023/08/30 01:19:29;;;;;;;12.50;7.30;;;;;;;18.54;100.00;97880.30;273009;1272;22188;-84
2023/08/30 01:25:37;;;;;;;15.30;8.50;;;;;;;18.53;100.00;97878.45;272987;1272;22453;-86
2023/08/30 01:31:40;;;;;;;11.00;8.10;;;;;;;18.51;100.00;97878.94;273061;1271;23634;-85
2023/08/30 01:37:44;;;;;;;12.50;9.30;;;;;;;18.54;100.00;97871.73;273057;1272;23769;-85
2023/08/30 01:43:47;;;;;;;14.90;10.00;;;;;;;18.54;100.00;97857.20;271756;1272;22211;-85
2023/08/30 01:49:49;;;;;;;17.50;10.60;;;;;;;18.54;100.00;97864.30;271251;1272;22411;-85
2023/08/30 01:55:50;;;;;;;18.30;12.20;;;;;;;18.54;100.00;97868.10;271133;1272;24405;-85
2023/08/30 02:01:54;;;;;;;16.10;11.10;;;;;;;18.53;100.00;97869.02;271953;1271;22168;-86
2023/08/30 02:08:09;;;;;;;16.90;11.20;;;;;;;18.54;100.00;97867.79;271054;1272;22604;-85
2023/08/30 02:14:15;;;;;;;16.60;10.40;;;;;;;18.55;100.00;97870.14;272819;1272;22206;-86
2023/08/30 02:20:17;;;;;;;13.60;10.10;;;;;;;18.55;100.00;97870.70;272858;1271;22430;-85
2023/08/30 02:26:19;;;;;;;13.30;10.20;;;;;;;18.53;100.00;97872.50;272876;1272;22212;-86
2023/08/30 02:32:22;;;;;;;16.50;11.20;;;;;;;18.53;100.00;97867.11;273074;1272;22213;-86
2023/08/30 02:38:24;;;;;;;16.10;11.30;;;;;;;18.49;100.00;97858.08;273028;1257;22311;-86
2023/08/30 02:44:26;;;;;;;16.00;11.60;;;;;;;18.50;100.00;97858.91;272748;1272;22356;-85
2023/08/30 02:50:27;;;;;;;15.10;11.60;;;;;;;18.51;100.00;97856.27;272678;1272;22819;-85
2023/08/30 02:56:29;;;;;;;20.70;12.90;;;;;;;18.51;100.00;97857.87;272776;1272;22498;-86
2023/08/30 03:02:33;;;;;;;20.00;12.10;;;;;;;18.49;100.00;97858.66;272870;1271;23455;-85
2023/08/30 03:08:36;;;;;;;19.50;12.40;;;;;;;18.45;100.00;97854.36;272798;1272;23492;-85
2023/08/30 03:14:41;;;;;;;16.40;11.70;;;;;;;18.41;100.00;97852.01;271754;1272;129961;-86
2023/08/30 03:20:42;;;;;;;18.30;11.80;;;;;;;18.39;100.00;97855.54;272460;1272;22376;-85
2023/08/30 03:26:45;;;;;;;27.80;12.70;;;;;;;18.41;100.00;97858.47;272870;1272;22212;-88
2023/08/30 03:32:47;;;;;;;21.50;12.70;;;;;;;18.40;100.00;97857.66;272958;1271;23605;-85
2023/08/30 03:38:49;;;;;;;19.60;13.40;;;;;;;18.37;100.00;97866.06;272822;1272;22492;-85
2023/08/30 03:44:50;;;;;;;21.20;14.70;;;;;;;18.35;100.00;97872.29;272978;1272;22207;-85
2023/08/30 03:50:53;;;;;;;26.50;16.40;;;;;;;18.29;100.00;97870.92;273008;1272;23336;-85
2023/08/30 03:56:54;;;;;;;25.60;16.30;;;;;;;18.27;100.00;97870.08;272895;1271;22382;-86
2023/08/30 04:02:56;;;;;;;26.00;14.60;;;;;;;18.23;100.00;97869.57;272951;1271;23689;-85
2023/08/30 04:08:58;;;;;;;20.60;13.30;;;;;;;18.22;100.00;97876.64;272797;1271;22409;-85
2023/08/30 04:15:03;;;;;;;21.20;13.70;;;;;;;18.21;100.00;97877.39;273065;1271;22447;-85
2023/08/30 04:21:07;;;;;;;19.30;13.00;;;;;;;18.20;100.00;97885.36;272809;1272;22220;-85
2023/08/30 04:27:09;;;;;;;18.00;13.20;;;;;;;18.17;100.00;97885.80;272977;1271;22519;-85
2023/08/30 04:33:24;;;;;;;26.60;15.40;;;;;;;18.15;100.00;97880.81;272753;1271;23809;-85
2023/08/30 04:39:26;;;;;;;23.80;15.00;;;;;;;18.13;100.00;97881.66;272266;1272;22448;-84
2023/08/30 04:45:29;;;;;;;24.50;15.00;;;;;;;18.09;100.00;97877.22;272847;1271;22211;-83
2023/08/30 04:51:32;;;;;;;22.20;14.70;;;;;;;18.09;100.00;97875.56;272667;1271;23698;-84
2023/08/30 04:57:33;;;;;;;22.60;15.10;;;;;;;18.11;100.00;97878.48;271384;1269;22388;-83
2023/08/30 05:03:36;;;;;;;29.40;15.10;;;;;;;18.08;100.00;97871.95;272819;1271;22387;-84
2023/08/30 05:09:45;;;;;;;23.90;15.00;;;;;;;18.04;100.00;97871.06;272894;1271;23589;-85
2023/08/30 05:16:03;;;;;;;22.90;13.90;;;;;;;18.04;100.00;97878.61;271593;1271;25380;-85
2023/08/30 05:22:05;;;;;;;21.60;14.30;;;;;;;18.04;100.00;97879.08;271033;1270;22387;-84
2023/08/30 05:28:07;;;;;;;22.00;14.60;;;;;;;18.04;100.00;97879.77;272792;1271;22520;-84
2023/08/30 05:34:09;;;;;;;26.30;13.90;;;;;;;18.04;100.00;97881.53;272864;1272;23583;-84
2023/08/30 05:40:30;;;;;;;24.60;14.90;;;;;;;18.02;100.00;97877.78;272840;1271;22368;-85
2023/08/30 06:18:41;;;;;;;28.40;16.00;;;;;;;17.97;100.00;97904.55;272931;1272;22925;-84
2023/08/30 06:24:43;;;;;;;27.30;15.90;;;;;;;17.97;100.00;97913.27;273103;1272;23484;-84
2023/08/30 06:30:45;;;;;;;25.90;15.90;;;;;;;17.99;100.00;97918.81;273056;1271;22332;-85
2023/08/30 06:36:48;;;;;;;28.10;15.80;;;;;;;18.02;100.00;97924.08;273082;1272;22372;-84
2023/08/30 06:42:50;;;;;;;29.90;16.80;;;;;;;18.05;100.00;97922.02;272888;1271;22194;-84
2023/08/30 06:48:52;;;;;;;35.40;17.30;;;;;;;18.03;100.00;97918.45;272697;1259;22528;-84
2023/08/30 06:54:54;;;;;;;32.00;15.70;;;;;;;18.03;100.00;97920.48;273080;1272;23398;-83
2023/08/30 07:00:58;;;;;;;30.10;16.00;;;;;;;18.02;100.00;97923.20;272875;1271;22348;-84
2023/08/30 07:07:00;;;;;;;30.60;17.10;;;;;;;18.02;100.00;97927.42;272367;1272;25126;-84
2023/08/30 07:13:04;;;;;;;27.90;16.00;;;;;;;18.02;100.00;97940.00;271285;1271;22546;-84
2023/08/30 07:19:06;;;;;;;23.70;14.60;;;;;;;17.99;100.00;97950.30;272395;1272;22338;-87
2023/08/30 07:25:17;;;;;;;19.40;11.50;;;;;;;17.94;100.00;97962.35;272428;1270;23199;-88
2023/08/30 07:31:22;;;;;;;11.10;7.50;;;;;;;17.88;100.00;97971.16;272601;1272;22745;-84
2023/08/30 07:37:25;;;;;;;12.00;7.70;;;;;;;17.86;100.00;97976.52;273065;1272;22391;-84
2023/08/30 07:43:26;;;;;;;12.40;7.40;;;;;;;17.86;100.00;97979.79;272802;1272;22291;-85
2023/08/30 07:49:28;;;;;;;11.30;7.80;;;;;;;17.87;100.00;97984.73;272906;1272;22332;-85
2023/08/30 07:55:30;;;;;;;12.10;7.40;;;;;;;17.90;100.00;97985.18;272861;1272;22176;-85
2023/08/30 08:01:32;;;;;;;10.10;6.40;;;;;;;17.98;100.00;97977.47;272658;1271;22350;-84
2023/08/30 08:07:38;;;;;;;9.80;6.50;;;;;;;18.06;100.00;97972.59;272323;1263;23857;-84
2023/08/30 08:13:39;;;;;;;11.60;7.00;;;;;;;18.11;100.00;97978.13;272833;1271;22339;-85
2023/08/30 08:19:44;;;;;;;9.70;6.80;;;;;;;18.12;100.00;97988.52;272703;1271;22205;-85
2023/08/30 08:25:46;;;;;;;13.20;8.00;;;;;;;18.13;100.00;97990.07;272771;1271;24287;-84
2023/08/30 08:31:48;;;;;;;11.60;8.00;;;;;;;18.14;100.00;97993.44;272771;1271;23157;-85
2023/08/30 08:38:41;;;;;;;14.60;8.50;;;;;;;18.23;100.00;97992.73;272781;1271;22783;-85
2023/08/30 09:08:29;;;;;;;13.90;8.80;;;;;;;18.55;100.00;97988.27;272967;1271;22783;-84
2023/08/30 09:14:31;;;;;;;15.40;9.10;;;;;;;18.63;100.00;97984.88;272784;1271;22975;-85
2023/08/30 09:20:32;;;;;;;12.70;7.60;;;;;;;18.75;100.00;97986.58;272842;1271;22370;-86
2023/08/30 09:26:37;;;;;;;12.30;7.90;;;;;;;18.88;100.00;97987.15;271993;1271;24057;-85
2023/08/30 09:32:40;;;;;;;13.50;8.40;;;;;;;18.98;100.00;97988.49;272474;1271;23963;-84
2023/08/30 09:38:48;;;;;;;12.00;7.70;;;;;;;18.98;100.00;97993.95;272473;1271;22276;-84
2023/08/30 09:44:50;;;;;;;14.10;7.30;;;;;;;18.85;100.00;97993.66;272723;1271;22153;-85
2023/08/30 09:50:56;;;;;;;14.00;8.10;;;;;;;18.76;100.00;98000.17;272707;1263;22257;-88
2023/08/30 09:56:59;;;;;;;14.30;9.00;;;;;;;18.64;100.00;98004.65;272822;1271;23153;-84
2023/08/30 10:03:03;;;;;;;11.60;7.10;;;;;;;18.59;100.00;97997.52;272670;1271;22314;-85
2023/08/30 10:09:07;;;;;;;11.60;8.10;;;;;;;18.64;100.00;98000.13;272737;1271;22419;-86
2023/08/30 10:15:10;;;;;;;17.60;9.50;;;;;;;18.68;100.00;98015.83;272847;1272;22761;-84
2023/08/30 10:21:17;;;;;;;15.20;8.80;;;;;;;18.62;100.00;98014.70;272841;1272;22367;-86
2023/08/30 10:27:20;;;;;;;11.90;7.50;;;;;;;18.67;100.00;98020.39;272770;1272;22324;-85
2023/08/30 10:33:25;;;;;;;13.70;8.40;;;;;;;18.71;100.00;98021.11;271294;1271;22509;-84
2023/08/30 10:39:34;;;;;;;11.50;8.20;;;;;;;18.70;100.00;98014.39;271419;1272;22389;-84
2023/08/30 10:45:36;;;;;;;10.80;6.30;;;;;;;18.68;100.00;98014.27;271296;1272;23624;-86
2023/08/30 10:51:39;;;;;;;25.50;8.10;;;;;;;18.75;100.00;98011.23;271320;1272;23445;-85
2023/08/30 10:57:43;;;;;;;11.70;7.10;;;;;;;18.84;100.00;98010.73;271235;1272;23079;-86
2023/08/30 11:03:45;;;;;;;11.30;8.00;;;;;;;19.00;100.00;98003.20;272658;1270;22445;-85
2023/08/30 11:09:47;;;;;;;13.10;8.40;;;;;;;19.15;100.00;97986.72;271392;1270;22407;-84
2023/08/30 11:15:50;;;;;;;13.30;9.10;;;;;;;19.18;100.00;97989.30;270505;1270;23072;-84
2023/08/30 11:21:52;;;;;;;13.90;8.80;;;;;;;19.10;100.00;97993.86;270075;1269;22647;-84
2023/08/30 11:28:02;;;;;;;13.50;9.70;;;;;;;18.99;100.00;97993.90;271140;1271;23390;-83
2023/08/30 11:34:03;;;;;;;12.00;8.50;;;;;;;18.94;100.00;97998.21;271992;1270;23069;-85
2023/08/30 11:40:06;;;;;;;16.10;10.00;;;;;;;18.88;100.00;97997.35;272325;1272;22371;-87
2023/08/30 11:46:08;;;;;;;16.90;10.60;;;;;;;18.77;100.00;97998.85;271039;1270;22545;-84
2023/08/30 11:52:10;;;;;;;17.80;12.10;;;;;;;18.71;100.00;98002.57;271108;1268;23389;-84
2023/08/30 11:58:12;;;;;;;18.00;12.10;;;;;;;18.67;100.00;98000.98;271767;1271;22533;-85
2023/08/30 12:04:15;;;;;;;16.70;11.80;;;;;;;18.60;100.00;98006.84;272226;1272;22385;-86
2023/08/30 12:10:19;;;;;;;19.60;10.20;;;;;;;18.54;100.00;98013.58;272716;1271;22193;-84
2023/08/30 12:16:21;;;;;;;26.00;11.10;;;;;;;18.47;100.00;98001.77;272784;1272;22385;-85
2023/08/30 12:22:23;;;;;;;15.50;9.10;;;;;;;18.37;100.00;98002.94;272515;1258;22524;-85
2023/08/30 12:28:29;;;;;;;19.90;11.70;;;;;;;18.27;100.00;98007.86;271403;1267;22535;-84
2023/08/30 12:34:30;;;;;;;18.10;11.50;;;;;;;18.18;100.00;97997.83;272611;1270;22278;-85
2023/08/30 12:40:35;;;;;;;17.50;11.10;;;;;;;18.11;100.00;97999.55;272167;1272;22462;-85
2023/08/30 12:46:37;;;;;;;21.00;12.30;;;;;;;18.09;100.00;98007.73;272184;1267;23258;-83
2023/08/30 12:52:40;;;;;;;22.50;12.60;;;;;;;18.06;100.00;98014.62;270928;1270;22331;-85
2023/08/30 12:58:42;;;;;;;28.30;17.50;;;;;;;18.04;100.00;98010.48;270641;1272;22548;-84
2023/08/30 13:04:43;;;;;;;30.30;19.80;;;;;;;18.02;100.00;98008.64;271018;1272;22342;-84
2023/08/30 13:10:45;;;;;;;22.90;15.70;;;;;;;18.13;100.00;98009.94;272785;1270;22316;-83
2023/08/30 13:16:47;;;;;;;22.70;16.70;;;;;;;18.30;100.00;98021.14;272987;1272;22445;-84
2023/08/30 13:22:48;;;;;;;20.20;14.90;;;;;;;18.39;100.00;98026.45;273014;1270;22237;-85
2023/08/30 13:28:50;;;;;;;21.90;14.80;;;;;;;18.38;100.00;98026.57;272945;1271;24108;-83
2023/08/30 13:34:52;;;;;;;20.30;14.50;;;;;;;18.33;100.00;98027.91;272924;1271;22466;-84
2023/08/30 13:41:00;;;;;;;21.60;14.40;;;;;;;18.25;100.00;98016.97;272924;1271;22404;-83
2023/08/30 13:47:05;;;;;;;21.50;13.80;;;;;;;18.15;100.00;98011.93;273009;1271;22337;-84
2023/08/30 13:53:07;;;;;;;20.30;14.20;;;;;;;18.15;100.00;98009.95;272367;1271;24773;-84
2023/08/30 13:59:09;;;;;;;19.90;13.50;;;;;;;18.21;100.00;98007.34;272836;1272;23316;-83
2023/08/30 14:05:11;;;;;;;18.90;12.60;;;;;;;18.29;100.00;97990.23;272398;1272;22384;-84
2023/08/30 14:11:14;;;;;;;17.20;11.80;;;;;;;18.38;100.00;97992.36;271782;1273;22365;-85
2023/08/30 14:17:16;;;;;;;15.00;10.30;;;;;;;18.47;100.00;97995.08;272577;1272;22591;-85
2023/08/30 14:23:18;;;;;;;12.70;8.70;;;;;;;18.49;100.00;97981.20;272562;1258;22397;-85
2023/08/30 14:29:20;;;;;;;10.90;8.20;;;;;;;18.46;100.00;97989.61;272200;1272;23361;-85
2023/08/30 14:35:24;;;;;;;14.20;8.90;;;;;;;18.48;100.00;98001.92;272102;1271;22259;-83
2023/08/30 14:41:28;;;;;;;13.20;8.40;;;;;;;18.51;100.00;98022.57;271742;1272;22402;-83
2023/08/30 14:47:31;;;;;;;14.60;8.10;;;;;;;18.43;100.00;98035.64;272632;1272;22393;-84
2023/08/30 14:53:32;;;;;;;13.80;8.10;;;;;;;18.34;100.00;98044.75;272751;1271;22405;-84
2023/08/30 14:59:34;;;;;;;13.60;8.20;;;;;;;18.29;100.00;98044.67;272661;1271;22380;-84
2023/08/30 15:05:36;;;;;;;11.20;6.90;;;;;;;18.26;100.00;98049.14;272639;1272;23941;-84
2023/08/30 15:11:38;;;;;;;15.50;8.70;;;;;;;18.23;100.00;98060.95;272512;1271;213640;-84
2023/08/30 15:17:40;;;;;;;16.30;9.60;;;;;;;18.25;100.00;98061.36;272736;1272;23363;-83
2023/08/30 15:23:41;;;;;;;15.50;8.70;;;;;;;18.22;100.00;98062.56;272930;1272;22364;-84
2023/08/30 15:29:44;;;;;;;15.40;9.10;;;;;;;18.17;100.00;98066.62;272956;1272;22351;-85
2023/08/30 15:35:46;;;;;;;12.90;9.00;;;;;;;18.11;100.00;98067.77;272704;1272;23510;-83
2023/08/30 15:41:48;;;;;;;13.30;8.10;;;;;;;17.98;100.00;98073.67;272923;1272;23102;-84
2023/08/30 15:47:50;;;;;;;13.30;8.60;;;;;;;17.87;100.00;98075.46;272932;1271;22303;-84
2023/08/30 15:53:52;;;;;;;11.30;8.60;;;;;;;17.74;100.00;98072.55;272907;1259;22472;-84
2023/08/30 15:59:53;;;;;;;14.00;9.50;;;;;;;17.66;100.00;98074.86;272862;1272;23450;-86
2023/08/30 16:05:55;;;;;;;13.20;9.50;;;;;;;17.55;100.00;98075.61;273009;1272;22200;-84
2023/08/30 16:11:57;;;;;;;12.80;8.50;;;;;;;17.47;100.00;98078.24;272978;1262;23671;-85
2023/08/30 16:17:59;;;;;;;13.80;8.70;;;;;;;17.35;100.00;98078.34;272926;1273;22408;-84
2023/08/30 16:24:00;;;;;;;12.90;8.70;;;;;;;17.24;100.00;98086.57;272961;1272;22484;-84
2023/08/30 16:30:04;;;;;;;12.70;8.50;;;;;;;17.18;100.00;98095.27;272996;1272;22433;-84
2023/08/30 16:36:06;;;;;;;15.50;10.00;;;;;;;17.13;100.00;98100.56;272931;1271;22401;-84
2023/08/30 16:42:08;;;;;;;17.50;11.30;;;;;;;17.06;100.00;98110.63;272993;1272;22240;-85
2023/08/30 16:48:12;;;;;;;13.20;11.60;;;;;;;17.03;100.00;98115.79;272983;1271;22318;-84
2023/08/30 16:54:13;;;;;;;17.20;12.60;;;;;;;16.96;100.00;98117.02;272960;1271;22386;-84
2023/08/30 17:00:18;;;;;;;19.30;12.00;;;;;;;16.92;100.00;98120.52;271133;1271;25361;-85
2023/08/30 17:06:21;;;;;;;13.90;10.60;;;;;;;16.88;100.00;98119.61;270856;1272;22934;-85
2023/08/30 17:12:23;;;;;;;12.20;10.20;;;;;;;16.87;100.00;98122.50;270518;1272;23273;-84
2023/08/30 17:34:12;;;;;;;14.70;10.10;;;;;;;16.77;100.00;98121.52;273020;1271;22357;-86
2023/08/30 17:40:14;;;;;;;15.30;11.70;;;;;;;16.67;100.00;98120.21;264753;1272;10001311;-88
2023/08/30 17:46:15;;;;;;;15.50;11.30;;;;;;;16.59;100.00;98124.05;272379;1272;22537;-85
2023/08/30 17:52:17;;;;;;;19.30;12.60;;;;;;;16.53;100.00;98124.92;271067;1272;23662;-85
2023/08/30 17:58:19;;;;;;;21.70;13.40;;;;;;;16.48;100.00;98126.08;272633;1272;22372;-85
2023/08/30 18:04:21;;;;;;;20.50;13.60;;;;;;;16.46;100.00;98134.57;271646;1272;22508;-86
2023/08/30 18:10:23;;;;;;;17.00;12.30;;;;;;;16.43;100.00;98137.63;271954;1271;22212;-85
2023/08/30 18:16:25;;;;;;;18.50;13.50;;;;;;;16.41;100.00;98145.89;271416;1271;24224;-84
2023/08/30 18:22:27;;;;;;;21.90;12.60;;;;;;;16.41;100.00;98149.75;270525;1272;22224;-86
2023/08/30 18:28:28;;;;;;;20.00;12.80;;;;;;;16.38;100.00;98157.71;271120;1271;22525;-85
2023/08/30 18:34:30;;;;;;;21.10;12.30;;;;;;;16.34;100.00;98160.58;272406;1272;24035;-85
2023/08/30 18:40:32;;;;;;;18.50;12.80;;;;;;;16.32;100.00;98161.90;272664;1265;23381;-85
2023/08/30 18:46:34;;;;;;;20.00;12.80;;;;;;;16.29;100.00;98164.02;272778;1272;22440;-85
2023/08/30 18:52:36;;;;;;;20.50;12.50;;;;;;;16.27;100.00;98165.25;272859;1267;22248;-85
2023/08/30 18:58:39;;;;;;;15.80;10.90;;;;;;;16.21;100.00;98165.72;272888;1267;22297;-87
2023/08/30 19:04:41;;;;;;;21.00;13.10;;;;;;;16.15;100.00;98163.50;272874;1272;23356;-85
2023/08/30 19:10:43;;;;;;;17.40;12.90;;;;;;;16.12;100.00;98157.67;272900;1271;22412;-85
2023/08/30 19:16:45;;;;;;;17.10;12.80;;;;;;;16.11;100.00;98156.02;272849;1271;23403;-85
2023/08/30 19:22:47;;;;;;;25.80;13.90;;;;;;;16.12;100.00;98158.42;272890;1271;22449;-85
2023/08/30 19:28:49;;;;;;;19.70;14.70;;;;;;;16.14;100.00;98157.61;272791;1262;23832;-85
2023/08/30 19:34:51;;;;;;;24.90;15.60;;;;;;;16.10;100.00;98154.71;272877;1271;22393;-84
2023/08/30 19:40:54;;;;;;;24.10;16.80;;;;;;;16.08;100.00;98156.58;272953;1271;22240;-85
2023/08/30 19:46:58;;;;;;;23.00;16.00;;;;;;;16.08;100.00;98172.92;272914;1272;22256;-86
2023/08/30 19:53:03;;;;;;;23.50;15.80;;;;;;;16.08;100.00;98183.08;272439;1271;22198;-85
2023/08/30 19:59:05;;;;;;;31.80;17.10;;;;;;;16.07;100.00;98181.67;272987;1272;22183;-85
2023/08/30 20:05:08;;;;;;;26.90;17.70;;;;;;;16.09;100.00;98179.11;273043;1272;22476;-87
2023/08/30 20:11:10;;;;;;;25.10;16.70;;;;;;;16.08;100.00;98181.88;272714;1272;22362;-84
2023/08/30 20:17:13;;;;;;;30.10;17.80;;;;;;;16.08;100.00;98182.92;272182;1272;22369;-85
2023/08/30 20:23:14;;;;;;;28.80;16.70;;;;;;;16.08;100.00;98190.81;272411;1267;22564;-84
2023/08/30 20:37:03;;;;;;;21.20;15.10;;;;;;;16.04;100.00;98199.10;273193;1270;22201;-84
2023/08/30 20:43:05;;;;;;;18.50;13.80;;;;;;;16.02;100.00;98204.44;273153;1272;22215;-85
2023/08/30 20:49:07;;;;;;;24.90;12.90;;;;;;;16.01;100.00;98209.44;273167;1271;22340;-85
2023/08/30 20:55:08;;;;;;;18.40;12.90;;;;;;;16.00;100.00;98210.95;273044;1271;22457;-85
2023/08/30 21:01:11;;;;;;;20.30;14.50;;;;;;;15.99;100.00;98203.63;273078;1271;23083;-85
2023/08/30 21:07:12;;;;;;;20.00;13.90;;;;;;;15.99;100.00;98211.54;272950;1271;23213;-85
2023/08/30 21:13:14;;;;;;;20.20;13.30;;;;;;;15.99;100.00;98221.86;273013;1271;22305;-84
2023/08/30 21:19:16;;;;;;;19.00;13.50;;;;;;;15.99;100.00;98226.98;272985;1271;23488;-84
2023/08/30 21:25:18;;;;;;;23.90;13.50;;;;;;;15.99;100.00;98233.38;273107;1271;23089;-84
2023/08/30 21:31:20;;;;;;;20.40;13.60;;;;;;;15.97;100.00;98234.91;273108;1272;22313;-84
2023/08/30 21:37:21;;;;;;;17.40;12.60;;;;;;;15.90;100.00;98237.74;273124;1271;23301;-84
2023/08/30 21:43:23;;;;;;;22.20;14.30;;;;;;;15.90;100.00;98234.96;272975;1272;22224;-85
2023/08/30 21:49:25;;;;;;;27.30;14.30;;;;;;;15.90;100.00;98231.59;272975;1271;22298;-85
2023/08/30 21:55:26;;;;;;;21.10;13.40;;;;;;;15.91;100.00;98231.82;273157;1272;22296;-85
2023/08/30 22:01:28;;;;;;;19.50;12.60;;;;;;;15.93;100.00;98241.23;273096;1271;22298;-85
2023/08/30 22:07:30;;;;;;;19.40;13.00;;;;;;;15.95;100.00;98246.87;273028;1271;22318;-84
2023/08/30 22:13:31;;;;;;;17.40;11.80;;;;;;;15.95;100.00;98245.77;272861;1272;22319;-84
2023/08/30 22:19:33;;;;;;;18.70;12.10;;;;;;;15.94;100.00;98251.92;272862;1271;22319;-84
2023/08/30 22:25:35;;;;;;;18.90;12.30;;;;;;;15.92;100.00;98262.71;272755;1271;22339;-84
2023/08/30 22:31:37;;;;;;;15.90;12.00;;;;;;;15.87;100.00;98266.77;272860;1271;23061;-84
2023/08/30 22:37:38;;;;;;;17.50;11.00;;;;;;;15.82;100.00;98267.73;272177;1272;22346;-85
2023/08/30 22:43:40;;;;;;;15.90;10.90;;;;;;;15.81;100.00;98265.63;272830;1272;22247;-84
2023/08/30 22:49:43;;;;;;;19.60;11.70;;;;;;;15.83;100.00;98265.52;272776;1271;22757;-84
2023/08/30 22:55:44;;;;;;;20.50;12.20;;;;;;;15.82;100.00;98267.88;273006;1272;22316;-84
2023/08/30 23:01:46;;;;;;;19.40;12.40;;;;;;;15.80;100.00;98270.16;270880;1271;22519;-85
2023/08/30 23:07:48;;;;;;;15.40;11.40;;;;;;;15.74;100.00;98263.16;270797;1271;22392;-85
2023/08/30 23:13:49;;;;;;;15.40;11.40;;;;;;;15.72;100.00;98259.61;273242;1263;22323;-85
2023/08/30 23:19:51;;;;;;;20.40;12.50;;;;;;;15.72;100.00;98249.05;270557;1262;22568;-85
2023/08/30 23:25:53;;;;;;;16.70;11.30;;;;;;;15.74;100.00;98251.81;271838;1272;22222;-84
2023/08/30 23:31:57;;;;;;;17.30;11.60;;;;;;;15.74;100.00;98249.14;272915;1272;22266;-84
2023/08/30 23:37:59;;;;;;;18.70;11.20;;;;;;;15.73;100.00;98251.29;273053;1272;22332;-85
2023/08/30 23:44:01;;;;;;;25.30;12.00;;;;;;;15.74;100.00;98247.89;271365;1270;22874;-86
2023/08/30 23:50:03;;;;;;;18.50;11.50;;;;;;;15.74;100.00;98244.89;271600;1271;22263;-86
2023/08/30 23:56:05;;;;;;;18.20;10.40;;;;;;;15.73;100.00;98246.48;273023;1271;22263;-85
